createdAt,value
2022-11-14T00:07:54.623Z,8.42
2022-11-14T00:18:15.287Z,8.45
2022-11-14T00:28:36.064Z,8.58
2022-11-14T00:38:56.981Z,8.48
2022-11-14T00:49:17.551Z,8.31
2022-11-14T00:59:38.056Z,8.38
2022-11-14T01:09:58.966Z,8.47
2022-11-14T01:20:20.309Z,8.44
2022-11-14T01:30:41.590Z,8.34
2022-11-14T01:41:03.543Z,8.36
2022-11-14T01:51:39.257Z,8.44
2022-11-14T02:02:05.221Z,8.50
2022-11-14T02:12:26.166Z,8.44
2022-11-14T02:22:46.287Z,8.26
2022-11-14T02:33:11.374Z,8.23
2022-11-14T02:43:32.707Z,8.27
2022-11-14T02:53:53.523Z,8.39
2022-11-14T03:04:13.899Z,8.36
2022-11-14T03:14:34.606Z,8.24
2022-11-14T03:24:55.221Z,8.26
2022-11-14T03:35:15.913Z,8.32
2022-11-14T03:45:37.578Z,8.21
2022-11-14T03:55:58.031Z,8.14
2022-11-14T04:06:18.720Z,8.19
2022-11-14T04:16:39.530Z,8.28
2022-11-14T04:26:59.961Z,8.23
2022-11-14T04:37:20.741Z,8.10
2022-11-14T04:47:42.474Z,8.11
2022-11-14T04:58:02.756Z,8.20
2022-11-14T05:08:23.243Z,8.07
2022-11-14T05:18:47.020Z,8.09
2022-11-14T05:29:07.859Z,8.11
2022-11-14T05:39:28.483Z,7.98
2022-11-14T05:49:49.050Z,7.89
2022-11-14T06:00:10.426Z,7.95
2022-11-14T06:10:31.025Z,8.00
2022-11-14T06:20:51.743Z,7.97
2022-11-14T06:31:12.285Z,8.01
2022-11-14T06:41:33.161Z,8.11
2022-11-14T06:51:54.994Z,8.07
2022-11-14T07:02:20.471Z,7.99
2022-11-14T07:12:42.359Z,8.02
2022-11-14T07:23:03.046Z,7.99
2022-11-14T07:33:23.636Z,8.10
2022-11-14T07:43:44.775Z,8.23
2022-11-14T07:54:05.725Z,8.18
2022-11-14T08:04:26.386Z,8.15
2022-11-14T08:14:46.892Z,8.29
2022-11-14T08:25:08.058Z,8.24
2022-11-14T08:35:28.583Z,8.50
2022-11-14T08:45:49.147Z,8.72
2022-11-14T08:56:13.983Z,8.60
2022-11-14T09:06:35.168Z,8.69
2022-11-14T09:16:55.921Z,8.83
2022-11-14T09:27:17.353Z,8.82
2022-11-14T09:37:37.721Z,8.89
2022-11-14T09:48:14.343Z,9.01
2022-11-14T09:58:34.780Z,8.92
2022-11-14T10:09:42.354Z,9.02
2022-11-14T10:20:29.372Z,9.30
2022-11-14T10:31:10.184Z,9.51
2022-11-14T10:52:16.089Z,9.18
2022-11-14T11:02:53.798Z,8.96
2022-11-14T11:13:30.759Z,8.79
2022-11-14T11:23:57.013Z,8.58
2022-11-14T11:34:37.842Z,8.67
2022-11-14T11:45:03.584Z,8.85
2022-11-14T11:55:34.632Z,9.02
2022-11-14T12:06:09.342Z,8.60
2022-11-14T12:16:36.202Z,8.52
